sensor_id;sensor_type;location;lat;lon;timestamp;P1;durP1;ratioP1;P2;durP2;ratioP2
69783;SDS011;57054;51.978;4.498;2023-02-26T00:00:11;2.63;;;1.38;;
69783;SDS011;57054;51.978;4.498;2023-02-26T00:02:39;3.15;;;1.23;;
69783;SDS011;57054;51.978;4.498;2023-02-26T00:05:06;1.88;;;1.40;;
69783;SDS011;57054;51.978;4.498;2023-02-26T00:07:32;1.77;;;0.98;;
69783;SDS011;57054;51.978;4.498;2023-02-26T00:09:58;4.07;;;1.20;;
69783;SDS011;57054;51.978;4.498;2023-02-26T00:12:25;4.82;;;1.45;;
69783;SDS011;57054;51.978;4.498;2023-02-26T00:14:51;1.40;;;1.00;;
69783;SDS011;57054;51.978;4.498;2023-02-26T00:17:22;2.63;;;1.15;;
69783;SDS011;57054;51.978;4.498;2023-02-26T00:19:55;2.15;;;0.98;;
69783;SDS011;57054;51.978;4.498;2023-02-26T00:22:21;1.52;;;0.88;;
69783;SDS011;57054;51.978;4.498;2023-02-26T00:24:47;1.17;;;0.93;;
69783;SDS011;57054;51.978;4.498;2023-02-26T00:27:12;1.40;;;0.88;;
69783;SDS011;57054;51.978;4.498;2023-02-26T00:29:38;1.83;;;0.77;;
69783;SDS011;57054;51.978;4.498;2023-02-26T00:32:03;1.70;;;0.80;;
69783;SDS011;57054;51.978;4.498;2023-02-26T00:34:29;2.15;;;0.90;;
69783;SDS011;57054;51.978;4.498;2023-02-26T00:42:25;3.13;;;0.90;;
69783;SDS011;57054;51.978;4.498;2023-02-26T00:44:50;1.15;;;0.80;;
69783;SDS011;57054;51.978;4.498;2023-02-26T00:47:19;4.35;;;1.13;;
69783;SDS011;57054;51.978;4.498;2023-02-26T00:52:28;1.95;;;0.80;;
69783;SDS011;57054;51.978;4.498;2023-02-26T00:54:56;4.75;;;1.17;;
69783;SDS011;57054;51.978;4.498;2023-02-26T00:57:21;4.03;;;0.98;;
69783;SDS011;57054;51.978;4.498;2023-02-26T00:59:47;2.40;;;1.02;;
69783;SDS011;57054;51.978;4.498;2023-02-26T01:02:12;2.22;;;0.90;;
69783;SDS011;57054;51.978;4.498;2023-02-26T01:04:38;2.55;;;1.15;;
69783;SDS011;57054;51.978;4.498;2023-02-26T01:07:03;4.70;;;1.38;;
69783;SDS011;57054;51.978;4.498;2023-02-26T01:09:30;0.98;;;0.88;;
69783;SDS011;57054;51.978;4.498;2023-02-26T01:12:02;2.08;;;0.77;;
69783;SDS011;57054;51.978;4.498;2023-02-26T01:14:31;1.45;;;0.82;;
69783;SDS011;57054;51.978;4.498;2023-02-26T01:19:46;1.70;;;0.75;;
69783;SDS011;57054;51.978;4.498;2023-02-26T01:22:24;9.15;;;1.65;;
69783;SDS011;57054;51.978;4.498;2023-02-26T01:24:55;3.97;;;1.30;;
69783;SDS011;57054;51.978;4.498;2023-02-26T01:27:27;1.83;;;0.88;;
69783;SDS011;57054;51.978;4.498;2023-02-26T01:29:53;12.07;;;1.58;;
69783;SDS011;57054;51.978;4.498;2023-02-26T01:41:01;8.55;;;1.30;;
69783;SDS011;57054;51.978;4.498;2023-02-26T01:43:34;6.10;;;1.10;;
69783;SDS011;57054;51.978;4.498;2023-02-26T01:48:54;2.80;;;1.15;;
69783;SDS011;57054;51.978;4.498;2023-02-26T01:54:07;2.20;;;0.93;;
69783;SDS011;57054;51.978;4.498;2023-02-26T01:56:33;4.05;;;1.25;;
69783;SDS011;57054;51.978;4.498;2023-02-26T01:58:58;6.93;;;1.52;;
69783;SDS011;57054;51.978;4.498;2023-02-26T02:04:46;2.55;;;0.73;;
69783;SDS011;57054;51.978;4.498;2023-02-26T02:07:13;4.95;;;1.40;;
69783;SDS011;57054;51.978;4.498;2023-02-26T02:09:39;2.65;;;0.90;;
69783;SDS011;57054;51.978;4.498;2023-02-26T02:31:56;1.50;;;0.70;;
69783;SDS011;57054;51.978;4.498;2023-02-26T02:34:45;0.43;;;0.43;;
69783;SDS011;57054;51.978;4.498;2023-02-26T02:37:20;0.77;;;0.70;;
69783;SDS011;57054;51.978;4.498;2023-02-26T02:42:29;1.05;;;0.60;;
69783;SDS011;57054;51.978;4.498;2023-02-26T02:45:09;1.77;;;0.90;;
69783;SDS011;57054;51.978;4.498;2023-02-26T02:47:41;0.70;;;0.68;;
69783;SDS011;57054;51.978;4.498;2023-02-26T02:50:18;0.57;;;0.50;;
69783;SDS011;57054;51.978;4.498;2023-02-26T02:52:50;0.75;;;0.40;;
69783;SDS011;57054;51.978;4.498;2023-02-26T02:55:25;2.95;;;0.60;;
69783;SDS011;57054;51.978;4.498;2023-02-26T02:57:57;1.85;;;0.52;;
69783;SDS011;57054;51.978;4.498;2023-02-26T03:00:33;1.17;;;0.55;;
69783;SDS011;57054;51.978;4.498;2023-02-26T03:05:39;0.80;;;0.45;;
69783;SDS011;57054;51.978;4.498;2023-02-26T03:08:05;1.25;;;0.63;;
69783;SDS011;57054;51.978;4.498;2023-02-26T03:10:35;0.73;;;0.40;;
69783;SDS011;57054;51.978;4.498;2023-02-26T03:13:01;2.63;;;0.57;;
69783;SDS011;57054;51.978;4.498;2023-02-26T03:21:03;0.63;;;0.50;;
69783;SDS011;57054;51.978;4.498;2023-02-26T03:24:36;1.42;;;0.50;;
69783;SDS011;57054;51.978;4.498;2023-02-26T03:26:57;0.52;;;0.32;;
69783;SDS011;57054;51.978;4.498;2023-02-26T03:29:49;1.65;;;0.80;;
69783;SDS011;57054;51.978;4.498;2023-02-26T03:34:59;1.05;;;0.40;;
69783;SDS011;57054;51.978;4.498;2023-02-26T03:37:31;2.67;;;0.60;;
69783;SDS011;57054;51.978;4.498;2023-02-26T03:40:03;0.50;;;0.43;;
69783;SDS011;57054;51.978;4.498;2023-02-26T03:42:50;2.92;;;0.70;;
69783;SDS011;57054;51.978;4.498;2023-02-26T03:45:22;1.80;;;0.80;;
69783;SDS011;57054;51.978;4.498;2023-02-26T03:47:53;1.00;;;0.70;;
69783;SDS011;57054;51.978;4.498;2023-02-26T03:53:11;1.90;;;1.17;;
69783;SDS011;57054;51.978;4.498;2023-02-26T03:55:49;1.15;;;1.00;;
69783;SDS011;57054;51.978;4.498;2023-02-26T03:58:19;1.88;;;1.15;;
69783;SDS011;57054;51.978;4.498;2023-02-26T04:00:45;1.98;;;0.95;;
69783;SDS011;57054;51.978;4.498;2023-02-26T04:03:18;2.15;;;1.10;;
69783;SDS011;57054;51.978;4.498;2023-02-26T04:05:53;2.30;;;1.10;;
69783;SDS011;57054;51.978;4.498;2023-02-26T04:08:20;1.60;;;1.08;;
69783;SDS011;57054;51.978;4.498;2023-02-26T04:10:54;1.85;;;0.60;;
69783;SDS011;57054;51.978;4.498;2023-02-26T04:13:22;0.73;;;0.70;;
69783;SDS011;57054;51.978;4.498;2023-02-26T04:15:48;1.35;;;0.90;;
69783;SDS011;57054;51.978;4.498;2023-02-26T04:18:13;4.78;;;1.15;;
69783;SDS011;57054;51.978;4.498;2023-02-26T04:20:39;1.27;;;0.70;;
69783;SDS011;57054;51.978;4.498;2023-02-26T04:23:04;1.35;;;0.60;;
69783;SDS011;57054;51.978;4.498;2023-02-26T04:25:29;1.38;;;0.90;;
69783;SDS011;57054;51.978;4.498;2023-02-26T04:27:55;1.70;;;1.00;;
69783;SDS011;57054;51.978;4.498;2023-02-26T04:30:21;1.33;;;0.80;;
69783;SDS011;57054;51.978;4.498;2023-02-26T04:32:47;1.30;;;0.80;;
69783;SDS011;57054;51.978;4.498;2023-02-26T04:35:12;0.95;;;0.60;;
69783;SDS011;57054;51.978;4.498;2023-02-26T04:37:38;1.75;;;0.70;;
69783;SDS011;57054;51.978;4.498;2023-02-26T04:40:03;1.20;;;0.80;;
69783;SDS011;57054;51.978;4.498;2023-02-26T04:42:29;1.08;;;0.68;;
69783;SDS011;57054;51.978;4.498;2023-02-26T04:44:55;1.23;;;0.80;;
69783;SDS011;57054;51.978;4.498;2023-02-26T04:47:20;2.00;;;0.73;;
69783;SDS011;57054;51.978;4.498;2023-02-26T04:49:46;2.40;;;0.75;;
69783;SDS011;57054;51.978;4.498;2023-02-26T04:52:11;1.60;;;0.60;;
69783;SDS011;57054;51.978;4.498;2023-02-26T04:54:37;4.22;;;0.80;;
69783;SDS011;57054;51.978;4.498;2023-02-26T04:57:02;1.65;;;0.60;;
69783;SDS011;57054;51.978;4.498;2023-02-26T04:59:28;3.03;;;0.77;;
69783;SDS011;57054;51.978;4.498;2023-02-26T05:01:53;4.28;;;1.15;;
69783;SDS011;57054;51.978;4.498;2023-02-26T05:04:19;0.75;;;0.50;;
69783;SDS011;57054;51.978;4.498;2023-02-26T05:06:44;2.35;;;0.70;;
69783;SDS011;57054;51.978;4.498;2023-02-26T05:09:10;1.77;;;0.70;;
69783;SDS011;57054;51.978;4.498;2023-02-26T05:11:35;2.97;;;0.90;;
69783;SDS011;57054;51.978;4.498;2023-02-26T05:14:01;0.70;;;0.70;;
69783;SDS011;57054;51.978;4.498;2023-02-26T05:16:26;1.77;;;1.15;;
69783;SDS011;57054;51.978;4.498;2023-02-26T05:18:51;1.55;;;1.00;;
69783;SDS011;57054;51.978;4.498;2023-02-26T05:21:17;3.58;;;1.10;;
69783;SDS011;57054;51.978;4.498;2023-02-26T05:23:43;1.45;;;1.08;;
69783;SDS011;57054;51.978;4.498;2023-02-26T05:26:08;1.80;;;1.20;;
69783;SDS011;57054;51.978;4.498;2023-02-26T05:28:33;2.15;;;1.30;;
69783;SDS011;57054;51.978;4.498;2023-02-26T05:31:00;1.20;;;1.10;;
69783;SDS011;57054;51.978;4.498;2023-02-26T05:33:26;3.60;;;1.25;;
69783;SDS011;57054;51.978;4.498;2023-02-26T05:35:52;1.25;;;0.90;;
69783;SDS011;57054;51.978;4.498;2023-02-26T05:38:17;2.70;;;1.00;;
69783;SDS011;57054;51.978;4.498;2023-02-26T05:40:44;1.30;;;1.00;;
69783;SDS011;57054;51.978;4.498;2023-02-26T05:43:09;0.90;;;0.90;;
69783;SDS011;57054;51.978;4.498;2023-02-26T05:45:34;1.63;;;1.00;;
69783;SDS011;57054;51.978;4.498;2023-02-26T05:48:00;1.08;;;0.70;;
69783;SDS011;57054;51.978;4.498;2023-02-26T05:50:26;1.20;;;0.75;;
69783;SDS011;57054;51.978;4.498;2023-02-26T05:52:51;0.98;;;0.80;;
69783;SDS011;57054;51.978;4.498;2023-02-26T05:55:17;1.63;;;0.88;;
69783;SDS011;57054;51.978;4.498;2023-02-26T05:57:43;2.35;;;0.77;;
69783;SDS011;57054;51.978;4.498;2023-02-26T06:00:09;1.10;;;0.70;;
69783;SDS011;57054;51.978;4.498;2023-02-26T06:02:35;2.08;;;0.95;;
69783;SDS011;57054;51.978;4.498;2023-02-26T06:05:01;1.23;;;0.63;;
69783;SDS011;57054;51.978;4.498;2023-02-26T06:07:26;1.23;;;0.55;;
69783;SDS011;57054;51.978;4.498;2023-02-26T06:09:52;1.55;;;0.82;;
69783;SDS011;57054;51.978;4.498;2023-02-26T06:12:17;0.88;;;0.60;;
69783;SDS011;57054;51.978;4.498;2023-02-26T06:14:43;1.58;;;0.80;;
69783;SDS011;57054;51.978;4.498;2023-02-26T06:17:08;1.98;;;0.55;;
69783;SDS011;57054;51.978;4.498;2023-02-26T06:19:33;3.47;;;0.50;;
69783;SDS011;57054;51.978;4.498;2023-02-26T06:21:59;0.93;;;0.60;;
69783;SDS011;57054;51.978;4.498;2023-02-26T06:24:24;2.13;;;0.70;;
69783;SDS011;57054;51.978;4.498;2023-02-26T06:26:50;2.40;;;0.50;;
69783;SDS011;57054;51.978;4.498;2023-02-26T06:29:16;2.30;;;0.63;;
69783;SDS011;57054;51.978;4.498;2023-02-26T06:31:43;1.50;;;0.70;;
69783;SDS011;57054;51.978;4.498;2023-02-26T06:34:08;1.90;;;0.88;;
69783;SDS011;57054;51.978;4.498;2023-02-26T06:36:34;1.60;;;0.43;;
69783;SDS011;57054;51.978;4.498;2023-02-26T06:38:59;0.65;;;0.50;;
69783;SDS011;57054;51.978;4.498;2023-02-26T06:41:25;0.70;;;0.47;;
69783;SDS011;57054;51.978;4.498;2023-02-26T06:43:50;2.75;;;0.57;;
69783;SDS011;57054;51.978;4.498;2023-02-26T06:46:16;2.47;;;0.73;;
69783;SDS011;57054;51.978;4.498;2023-02-26T06:48:41;1.90;;;0.80;;
69783;SDS011;57054;51.978;4.498;2023-02-26T06:51:06;1.73;;;0.80;;
69783;SDS011;57054;51.978;4.498;2023-02-26T06:53:33;2.05;;;0.60;;
69783;SDS011;57054;51.978;4.498;2023-02-26T06:55:58;1.85;;;0.88;;
69783;SDS011;57054;51.978;4.498;2023-02-26T06:58:24;2.85;;;0.90;;
69783;SDS011;57054;51.978;4.498;2023-02-26T07:00:49;1.40;;;0.60;;
69783;SDS011;57054;51.978;4.498;2023-02-26T07:03:15;1.20;;;0.65;;
69783;SDS011;57054;51.978;4.498;2023-02-26T07:05:42;1.17;;;0.73;;
69783;SDS011;57054;51.978;4.498;2023-02-26T07:08:08;1.85;;;1.55;;
69783;SDS011;57054;51.978;4.498;2023-02-26T07:10:34;1.20;;;1.00;;
69783;SDS011;57054;51.978;4.498;2023-02-26T07:13:00;2.90;;;1.05;;
69783;SDS011;57054;51.978;4.498;2023-02-26T07:15:26;3.05;;;1.40;;
69783;SDS011;57054;51.978;4.498;2023-02-26T07:17:51;2.63;;;1.17;;
69783;SDS011;57054;51.978;4.498;2023-02-26T07:20:17;3.17;;;1.10;;
69783;SDS011;57054;51.978;4.498;2023-02-26T07:22:42;2.20;;;1.25;;
69783;SDS011;57054;51.978;4.498;2023-02-26T07:25:08;4.82;;;1.40;;
69783;SDS011;57054;51.978;4.498;2023-02-26T07:27:34;2.58;;;1.10;;
69783;SDS011;57054;51.978;4.498;2023-02-26T07:29:59;2.95;;;0.98;;
69783;SDS011;57054;51.978;4.498;2023-02-26T07:32:24;3.97;;;1.25;;
69783;SDS011;57054;51.978;4.498;2023-02-26T07:34:50;3.95;;;1.10;;
69783;SDS011;57054;51.978;4.498;2023-02-26T07:37:15;1.60;;;0.65;;
69783;SDS011;57054;51.978;4.498;2023-02-26T07:39:41;1.80;;;0.88;;
69783;SDS011;57054;51.978;4.498;2023-02-26T07:42:06;2.40;;;1.13;;
69783;SDS011;57054;51.978;4.498;2023-02-26T07:44:33;1.20;;;1.08;;
69783;SDS011;57054;51.978;4.498;2023-02-26T07:46:58;1.15;;;0.70;;
69783;SDS011;57054;51.978;4.498;2023-02-26T07:49:24;4.40;;;0.80;;
69783;SDS011;57054;51.978;4.498;2023-02-26T07:51:49;0.85;;;0.70;;
69783;SDS011;57054;51.978;4.498;2023-02-26T07:54:14;1.50;;;0.80;;
69783;SDS011;57054;51.978;4.498;2023-02-26T07:56:40;2.47;;;0.90;;
69783;SDS011;57054;51.978;4.498;2023-02-26T07:59:06;2.90;;;0.60;;
69783;SDS011;57054;51.978;4.498;2023-02-26T08:01:32;1.45;;;0.73;;
69783;SDS011;57054;51.978;4.498;2023-02-26T08:03:58;0.90;;;0.60;;
69783;SDS011;57054;51.978;4.498;2023-02-26T08:06:23;2.33;;;0.85;;
69783;SDS011;57054;51.978;4.498;2023-02-26T08:08:49;2.80;;;0.80;;
69783;SDS011;57054;51.978;4.498;2023-02-26T08:11:14;4.35;;;0.88;;
69783;SDS011;57054;51.978;4.498;2023-02-26T08:13:40;5.80;;;0.93;;
69783;SDS011;57054;51.978;4.498;2023-02-26T08:16:05;3.80;;;0.77;;
69783;SDS011;57054;51.978;4.498;2023-02-26T08:18:31;4.43;;;0.65;;
69783;SDS011;57054;51.978;4.498;2023-02-26T08:20:56;10.90;;;0.95;;
69783;SDS011;57054;51.978;4.498;2023-02-26T08:23:21;3.17;;;0.63;;
69783;SDS011;57054;51.978;4.498;2023-02-26T08:25:47;3.70;;;1.10;;
69783;SDS011;57054;51.978;4.498;2023-02-26T08:28:13;3.08;;;0.50;;
69783;SDS011;57054;51.978;4.498;2023-02-26T08:30:38;1.77;;;0.75;;
69783;SDS011;57054;51.978;4.498;2023-02-26T08:33:03;4.68;;;0.80;;
69783;SDS011;57054;51.978;4.498;2023-02-26T08:35:29;3.92;;;1.05;;
69783;SDS011;57054;51.978;4.498;2023-02-26T08:37:55;3.78;;;0.98;;
69783;SDS011;57054;51.978;4.498;2023-02-26T08:40:20;8.65;;;0.70;;
69783;SDS011;57054;51.978;4.498;2023-02-26T08:42:45;2.33;;;0.63;;
69783;SDS011;57054;51.978;4.498;2023-02-26T08:45:11;3.78;;;0.73;;
69783;SDS011;57054;51.978;4.498;2023-02-26T08:47:36;2.10;;;0.50;;
69783;SDS011;57054;51.978;4.498;2023-02-26T08:50:02;4.90;;;0.80;;
69783;SDS011;57054;51.978;4.498;2023-02-26T08:52:28;2.17;;;0.57;;
69783;SDS011;57054;51.978;4.498;2023-02-26T08:54:54;5.35;;;0.65;;
69783;SDS011;57054;51.978;4.498;2023-02-26T08:57:19;5.25;;;0.60;;
69783;SDS011;57054;51.978;4.498;2023-02-26T08:59:45;1.30;;;0.40;;
69783;SDS011;57054;51.978;4.498;2023-02-26T09:02:11;3.85;;;0.47;;
69783;SDS011;57054;51.978;4.498;2023-02-26T09:04:39;1.95;;;0.60;;
69783;SDS011;57054;51.978;4.498;2023-02-26T09:07:04;1.05;;;0.30;;
69783;SDS011;57054;51.978;4.498;2023-02-26T09:09:30;3.72;;;0.75;;
69783;SDS011;57054;51.978;4.498;2023-02-26T09:11:56;0.80;;;0.43;;
69783;SDS011;57054;51.978;4.498;2023-02-26T09:14:22;2.78;;;0.57;;
69783;SDS011;57054;51.978;4.498;2023-02-26T09:16:48;2.70;;;0.40;;
69783;SDS011;57054;51.978;4.498;2023-02-26T09:19:13;1.25;;;0.50;;
69783;SDS011;57054;51.978;4.498;2023-02-26T09:21:39;5.18;;;0.68;;
69783;SDS011;57054;51.978;4.498;2023-02-26T09:24:04;2.28;;;0.60;;
69783;SDS011;57054;51.978;4.498;2023-02-26T09:26:30;5.40;;;0.50;;
69783;SDS011;57054;51.978;4.498;2023-02-26T09:28:55;2.25;;;0.57;;
69783;SDS011;57054;51.978;4.498;2023-02-26T09:31:21;2.35;;;0.65;;
69783;SDS011;57054;51.978;4.498;2023-02-26T09:33:46;0.68;;;0.25;;
69783;SDS011;57054;51.978;4.498;2023-02-26T09:36:11;2.17;;;0.43;;
69783;SDS011;57054;51.978;4.498;2023-02-26T09:38:37;0.63;;;0.40;;
69783;SDS011;57054;51.978;4.498;2023-02-26T09:41:06;0.93;;;0.45;;
69783;SDS011;57054;51.978;4.498;2023-02-26T09:46:47;0.65;;;0.30;;
69783;SDS011;57054;51.978;4.498;2023-02-26T09:49:34;1.52;;;0.28;;
69783;SDS011;57054;51.978;4.498;2023-02-26T09:54:46;1.38;;;0.40;;
69783;SDS011;57054;51.978;4.498;2023-02-26T09:57:19;2.30;;;0.45;;
69783;SDS011;57054;51.978;4.498;2023-02-26T09:59:51;1.80;;;0.60;;
69783;SDS011;57054;51.978;4.498;2023-02-26T10:05:15;2.17;;;0.60;;
69783;SDS011;57054;51.978;4.498;2023-02-26T10:13:17;1.77;;;0.40;;
69783;SDS011;57054;51.978;4.498;2023-02-26T10:15:48;3.78;;;0.50;;
69783;SDS011;57054;51.978;4.498;2023-02-26T10:18:35;3.28;;;0.63;;
69783;SDS011;57054;51.978;4.498;2023-02-26T10:21:25;2.47;;;0.93;;
69783;SDS011;57054;51.978;4.498;2023-02-26T10:23:57;3.33;;;0.40;;
69783;SDS011;57054;51.978;4.498;2023-02-26T10:26:26;2.53;;;0.50;;
69783;SDS011;57054;51.978;4.498;2023-02-26T10:31:58;1.30;;;0.30;;
69783;SDS011;57054;51.978;4.498;2023-02-26T10:34:36;1.87;;;0.40;;
69783;SDS011;57054;51.978;4.498;2023-02-26T10:42:32;2.72;;;0.77;;
69783;SDS011;57054;51.978;4.498;2023-02-26T10:45:34;1.65;;;0.70;;
69783;SDS011;57054;51.978;4.498;2023-02-26T10:51:12;2.67;;;0.63;;
69783;SDS011;57054;51.978;4.498;2023-02-26T10:53:40;1.20;;;0.60;;
69783;SDS011;57054;51.978;4.498;2023-02-26T10:56:10;2.17;;;0.65;;
69783;SDS011;57054;51.978;4.498;2023-02-26T10:58:40;3.70;;;0.43;;
69783;SDS011;57054;51.978;4.498;2023-02-26T11:01:09;0.93;;;0.38;;
69783;SDS011;57054;51.978;4.498;2023-02-26T11:03:41;1.50;;;0.60;;
69783;SDS011;57054;51.978;4.498;2023-02-26T11:06:09;3.33;;;0.50;;
69783;SDS011;57054;51.978;4.498;2023-02-26T11:08:48;2.33;;;0.35;;
69783;SDS011;57054;51.978;4.498;2023-02-26T11:14:06;2.40;;;0.43;;
69783;SDS011;57054;51.978;4.498;2023-02-26T11:16:32;2.95;;;0.77;;
69783;SDS011;57054;51.978;4.498;2023-02-26T11:18:59;1.65;;;0.60;;
69783;SDS011;57054;51.978;4.498;2023-02-26T11:21:26;5.57;;;0.50;;
69783;SDS011;57054;51.978;4.498;2023-02-26T11:24:00;0.50;;;0.40;;
69783;SDS011;57054;51.978;4.498;2023-02-26T11:26:31;3.58;;;0.40;;
69783;SDS011;57054;51.978;4.498;2023-02-26T11:28:59;3.53;;;0.50;;
69783;SDS011;57054;51.978;4.498;2023-02-26T11:31:25;0.98;;;0.50;;
69783;SDS011;57054;51.978;4.498;2023-02-26T11:34:12;6.75;;;0.73;;
69783;SDS011;57054;51.978;4.498;2023-02-26T11:36:38;2.17;;;0.60;;
69783;SDS011;57054;51.978;4.498;2023-02-26T11:39:19;2.00;;;0.32;;
69783;SDS011;57054;51.978;4.498;2023-02-26T11:41:47;5.25;;;0.73;;
69783;SDS011;57054;51.978;4.498;2023-02-26T11:46:55;2.35;;;0.82;;
69783;SDS011;57054;51.978;4.498;2023-02-26T11:49:23;1.38;;;0.40;;
69783;SDS011;57054;51.978;4.498;2023-02-26T11:52:05;2.78;;;0.45;;
69783;SDS011;57054;51.978;4.498;2023-02-26T11:54:43;1.27;;;0.40;;
69783;SDS011;57054;51.978;4.498;2023-02-26T11:57:23;4.82;;;0.50;;
69783;SDS011;57054;51.978;4.498;2023-02-26T11:59:52;1.90;;;0.50;;
69783;SDS011;57054;51.978;4.498;2023-02-26T12:02:19;3.10;;;0.50;;
69783;SDS011;57054;51.978;4.498;2023-02-26T12:04:48;0.98;;;0.40;;
69783;SDS011;57054;51.978;4.498;2023-02-26T12:07:17;10.15;;;0.65;;
69783;SDS011;57054;51.978;4.498;2023-02-26T12:09:44;0.93;;;0.40;;
69783;SDS011;57054;51.978;4.498;2023-02-26T12:20:26;3.03;;;0.40;;
69783;SDS011;57054;51.978;4.498;2023-02-26T12:26:06;1.20;;;0.38;;
69783;SDS011;57054;51.978;4.498;2023-02-26T12:34:24;1.88;;;0.43;;
69783;SDS011;57054;51.978;4.498;2023-02-26T12:43:06;2.83;;;0.47;;
69783;SDS011;57054;51.978;4.498;2023-02-26T12:57:16;3.22;;;0.50;;
69783;SDS011;57054;51.978;4.498;2023-02-26T13:05:46;2.30;;;0.85;;
69783;SDS011;57054;51.978;4.498;2023-02-26T13:16:48;2.50;;;0.60;;
69783;SDS011;57054;51.978;4.498;2023-02-26T13:22:27;0.90;;;0.70;;
69783;SDS011;57054;51.978;4.498;2023-02-26T13:25:15;5.95;;;0.52;;
69783;SDS011;57054;51.978;4.498;2023-02-26T13:27:47;6.22;;;1.08;;
69783;SDS011;57054;51.978;4.498;2023-02-26T13:30:17;1.02;;;0.50;;
69783;SDS011;57054;51.978;4.498;2023-02-26T13:32:48;2.03;;;0.70;;
69783;SDS011;57054;51.978;4.498;2023-02-26T13:38:20;3.58;;;0.70;;
69783;SDS011;57054;51.978;4.498;2023-02-26T13:40:58;1.55;;;0.47;;
69783;SDS011;57054;51.978;4.498;2023-02-26T13:56:58;1.40;;;0.70;;
69783;SDS011;57054;51.978;4.498;2023-02-26T13:59:34;4.22;;;0.77;;
69783;SDS011;57054;51.978;4.498;2023-02-26T14:02:15;3.75;;;0.70;;
69783;SDS011;57054;51.978;4.498;2023-02-26T14:05:05;2.97;;;0.40;;
69783;SDS011;57054;51.978;4.498;2023-02-26T14:07:53;6.55;;;0.80;;
69783;SDS011;57054;51.978;4.498;2023-02-26T14:10:44;1.75;;;0.40;;
69783;SDS011;57054;51.978;4.498;2023-02-26T14:15:58;1.45;;;0.50;;
69783;SDS011;57054;51.978;4.498;2023-02-26T14:21:53;1.30;;;0.35;;
69783;SDS011;57054;51.978;4.498;2023-02-26T14:24:34;1.05;;;0.35;;
69783;SDS011;57054;51.978;4.498;2023-02-26T14:27:20;2.63;;;0.40;;
69783;SDS011;57054;51.978;4.498;2023-02-26T14:35:08;2.13;;;0.93;;
69783;SDS011;57054;51.978;4.498;2023-02-26T14:40:05;1.85;;;0.50;;
69783;SDS011;57054;51.978;4.498;2023-02-26T14:45:15;2.15;;;0.93;;
69783;SDS011;57054;51.978;4.498;2023-02-26T14:47:54;2.45;;;0.60;;
69783;SDS011;57054;51.978;4.498;2023-02-26T14:50:22;5.07;;;0.73;;
69783;SDS011;57054;51.978;4.498;2023-02-26T14:56:25;1.63;;;0.50;;
69783;SDS011;57054;51.978;4.498;2023-02-26T14:59:19;4.85;;;0.63;;
69783;SDS011;57054;51.978;4.498;2023-02-26T15:01:47;2.42;;;0.55;;
69783;SDS011;57054;51.978;4.498;2023-02-26T15:04:24;8.02;;;0.80;;
69783;SDS011;57054;51.978;4.498;2023-02-26T15:07:02;1.95;;;0.70;;
69783;SDS011;57054;51.978;4.498;2023-02-26T15:09:40;2.03;;;0.70;;
69783;SDS011;57054;51.978;4.498;2023-02-26T15:18:00;1.17;;;0.28;;
69783;SDS011;57054;51.978;4.498;2023-02-26T15:23:56;5.25;;;0.73;;
69783;SDS011;57054;51.978;4.498;2023-02-26T15:26:30;2.45;;;0.52;;
69783;SDS011;57054;51.978;4.498;2023-02-26T15:28:58;0.98;;;0.50;;
69783;SDS011;57054;51.978;4.498;2023-02-26T15:31:41;5.88;;;0.57;;
69783;SDS011;57054;51.978;4.498;2023-02-26T15:34:11;6.88;;;0.60;;
69783;SDS011;57054;51.978;4.498;2023-02-26T15:36:38;2.00;;;0.30;;
69783;SDS011;57054;51.978;4.498;2023-02-26T15:39:08;4.03;;;0.40;;
69783;SDS011;57054;51.978;4.498;2023-02-26T15:41:34;0.57;;;0.40;;
69783;SDS011;57054;51.978;4.498;2023-02-26T15:44:04;0.40;;;0.40;;
69783;SDS011;57054;51.978;4.498;2023-02-26T15:46:39;0.52;;;0.38;;
69783;SDS011;57054;51.978;4.498;2023-02-26T15:49:07;5.05;;;0.82;;
69783;SDS011;57054;51.978;4.498;2023-02-26T15:51:37;1.38;;;0.38;;
69783;SDS011;57054;51.978;4.498;2023-02-26T15:54:04;1.65;;;0.70;;
69783;SDS011;57054;51.978;4.498;2023-02-26T15:56:33;1.33;;;0.68;;
69783;SDS011;57054;51.978;4.498;2023-02-26T15:59:02;0.93;;;0.50;;
69783;SDS011;57054;51.978;4.498;2023-02-26T16:01:31;2.83;;;0.50;;
69783;SDS011;57054;51.978;4.498;2023-02-26T16:04:00;2.55;;;0.52;;
69783;SDS011;57054;51.978;4.498;2023-02-26T16:06:31;0.95;;;0.40;;
69783;SDS011;57054;51.978;4.498;2023-02-26T16:09:05;3.75;;;0.68;;
69783;SDS011;57054;51.978;4.498;2023-02-26T16:11:39;1.05;;;0.55;;
69783;SDS011;57054;51.978;4.498;2023-02-26T16:14:10;6.90;;;0.95;;
69783;SDS011;57054;51.978;4.498;2023-02-26T16:16:43;1.35;;;0.40;;
69783;SDS011;57054;51.978;4.498;2023-02-26T16:19:13;3.33;;;0.60;;
69783;SDS011;57054;51.978;4.498;2023-02-26T16:21:40;0.88;;;0.70;;
69783;SDS011;57054;51.978;4.498;2023-02-26T16:24:14;2.42;;;0.70;;
69783;SDS011;57054;51.978;4.498;2023-02-26T16:26:43;2.30;;;0.40;;
69783;SDS011;57054;51.978;4.498;2023-02-26T16:29:15;2.03;;;0.57;;
69783;SDS011;57054;51.978;4.498;2023-02-26T16:31:44;3.20;;;0.95;;
69783;SDS011;57054;51.978;4.498;2023-02-26T16:34:22;3.22;;;0.80;;
69783;SDS011;57054;51.978;4.498;2023-02-26T16:36:48;2.67;;;0.55;;
69783;SDS011;57054;51.978;4.498;2023-02-26T16:39:23;7.05;;;0.70;;
69783;SDS011;57054;51.978;4.498;2023-02-26T16:42:02;1.85;;;0.50;;
69783;SDS011;57054;51.978;4.498;2023-02-26T16:46:59;2.92;;;0.80;;
69783;SDS011;57054;51.978;4.498;2023-02-26T16:49:28;1.80;;;0.55;;
69783;SDS011;57054;51.978;4.498;2023-02-26T16:51:57;3.67;;;0.77;;
69783;SDS011;57054;51.978;4.498;2023-02-26T16:54:24;1.05;;;0.68;;
69783;SDS011;57054;51.978;4.498;2023-02-26T16:56:58;5.32;;;0.70;;
69783;SDS011;57054;51.978;4.498;2023-02-26T16:59:29;2.08;;;0.85;;
69783;SDS011;57054;51.978;4.498;2023-02-26T17:02:00;5.68;;;1.02;;
69783;SDS011;57054;51.978;4.498;2023-02-26T17:04:33;4.32;;;0.55;;
69783;SDS011;57054;51.978;4.498;2023-02-26T17:07:00;2.42;;;0.85;;
69783;SDS011;57054;51.978;4.498;2023-02-26T17:09:39;2.40;;;0.60;;
69783;SDS011;57054;51.978;4.498;2023-02-26T17:12:43;1.30;;;0.90;;
69783;SDS011;57054;51.978;4.498;2023-02-26T17:15:16;5.50;;;0.80;;
69783;SDS011;57054;51.978;4.498;2023-02-26T17:17:45;2.55;;;0.82;;
69783;SDS011;57054;51.978;4.498;2023-02-26T17:20:11;4.43;;;1.00;;
69783;SDS011;57054;51.978;4.498;2023-02-26T17:22:36;2.72;;;1.15;;
69783;SDS011;57054;51.978;4.498;2023-02-26T17:25:03;1.75;;;0.95;;
69783;SDS011;57054;51.978;4.498;2023-02-26T17:27:31;2.22;;;0.82;;
69783;SDS011;57054;51.978;4.498;2023-02-26T17:32:25;3.70;;;0.98;;
69783;SDS011;57054;51.978;4.498;2023-02-26T17:34:52;1.20;;;0.90;;
69783;SDS011;57054;51.978;4.498;2023-02-26T17:37:18;2.55;;;0.90;;
69783;SDS011;57054;51.978;4.498;2023-02-26T17:39:44;3.20;;;0.95;;
69783;SDS011;57054;51.978;4.498;2023-02-26T17:42:10;1.77;;;1.02;;
69783;SDS011;57054;51.978;4.498;2023-02-26T17:44:37;2.75;;;1.08;;
69783;SDS011;57054;51.978;4.498;2023-02-26T17:47:02;2.45;;;1.15;;
69783;SDS011;57054;51.978;4.498;2023-02-26T17:49:28;3.08;;;1.05;;
69783;SDS011;57054;51.978;4.498;2023-02-26T17:51:53;1.20;;;0.90;;
69783;SDS011;57054;51.978;4.498;2023-02-26T17:54:18;2.03;;;0.80;;
69783;SDS011;57054;51.978;4.498;2023-02-26T17:56:44;2.80;;;1.00;;
69783;SDS011;57054;51.978;4.498;2023-02-26T17:59:09;1.10;;;1.00;;
69783;SDS011;57054;51.978;4.498;2023-02-26T18:01:36;2.28;;;1.05;;
69783;SDS011;57054;51.978;4.498;2023-02-26T18:04:02;3.78;;;1.08;;
69783;SDS011;57054;51.978;4.498;2023-02-26T18:06:29;2.33;;;1.33;;
69783;SDS011;57054;51.978;4.498;2023-02-26T18:08:58;2.75;;;1.70;;
69783;SDS011;57054;51.978;4.498;2023-02-26T18:11:24;3.00;;;1.98;;
69783;SDS011;57054;51.978;4.498;2023-02-26T18:13:50;5.22;;;2.63;;
69783;SDS011;57054;51.978;4.498;2023-02-26T18:16:20;4.70;;;2.42;;
69783;SDS011;57054;51.978;4.498;2023-02-26T18:18:47;3.08;;;2.80;;